Time;durP1;ratioP1;P1;durP2;ratioP2;P2;SDS_P1;SDS_P2;PMS_P1;PMS_P2;Temp;Humidity;BMP_temperature;BMP_pressure;BME280_temperature;BME280_humidity;BME280_pressure;Samples;Min_cycle;Max_cycle;Signal;HPM_P1;HPM_P2
2021/12/13 02:37:42;;;;;;;9.85;7.10;;;;;;;4.68;100.00;100477.66;4969142;28;20517;-70
2021/12/13 02:40:09;;;;;;;9.45;7.43;;;;;;;4.65;100.00;100477.47;4972023;28;20041;-70
2021/12/13 02:42:35;;;;;;;9.68;7.72;;;;;;;4.57;100.00;100473.56;4972922;28;20054;-70
2021/12/13 02:45:17;;;;;;;11.43;8.75;;;;;;;4.66;100.00;100486.94;4972815;28;20065;-70
2021/12/13 02:47:49;;;;;;;10.40;7.65;;;;;;;4.29;100.00;100441.22;4980306;28;20030;-70
2021/12/13 02:50:35;;;;;;;10.25;9.05;;;;;;;4.51;100.00;100501.31;4992411;28;20026;-70
2021/12/13 02:53:02;;;;;;;10.38;8.50;;;;;;;4.64;100.00;100496.16;4992122;28;20031;-70
2021/12/13 02:55:29;;;;;;;11.00;8.85;;;;;;;4.61;100.00;100487.41;4992209;28;20121;-70
2021/12/13 02:57:58;;;;;;;16.05;11.45;;;;;;;4.72;100.00;100500.88;4978124;28;20038;-71
2021/12/13 03:00:41;;;;;;;16.52;11.50;;;;;;;4.58;100.00;100500.03;4987040;28;20026;-71
2021/12/13 03:03:13;;;;;;;12.90;9.85;;;;;;;4.41;100.00;100505.00;4991716;28;20019;-72
2021/12/13 03:05:42;;;;;;;13.07;9.38;;;;;;;4.57;100.00;100498.25;4992260;28;20101;-71
2021/12/13 03:08:18;;;;;;;30.10;26.85;;;;;;;4.68;100.00;100495.56;4991922;28;20088;-71
2021/12/13 09:31:15;;;;;;;9.57;7.32;;;;;;;4.58;100.00;100725.03;4974428;28;20073;-70
2021/12/13 09:33:47;;;;;;;8.43;6.43;;;;;;;4.52;100.00;100675.28;4974323;28;20073;-71
2021/12/13 09:36:23;;;;;;;10.40;7.63;;;;;;;4.56;100.00;100681.47;4974214;28;20054;-70
2021/12/13 09:39:06;;;;;;;9.57;7.22;;;;;;;4.78;100.00;100714.41;4974396;28;20117;-70
2021/12/13 09:41:38;;;;;;;11.50;7.78;;;;;;;4.85;100.00;100713.16;4974249;28;20038;-70
2021/12/13 09:44:10;;;;;;;11.75;7.38;;;;;;;4.90;100.00;100709.22;4974060;28;20122;-70
2021/12/13 09:46:48;;;;;;;7.95;4.90;;;;;;;4.50;100.00;100647.84;4973031;28;20044;-70
2021/12/13 09:49:32;;;;;;;8.88;6.13;;;;;;;4.85;100.00;100708.91;4974166;28;20405;-70
2021/12/13 09:51:57;;;;;;;8.95;6.22;;;;;;;4.87;100.00;100706.44;4973913;28;20115;-70
2021/12/13 09:54:29;;;;;;;8.32;6.07;;;;;;;4.86;100.00;100713.25;4974578;28;20089;-70
2021/12/13 09:56:57;;;;;;;8.25;6.20;;;;;;;4.91;100.00;100704.97;4973801;28;20067;-70
2021/12/13 09:59:31;;;;;;;12.25;9.95;;;;;;;4.97;100.00;100713.94;4973996;28;20049;-70
2021/12/13 10:02:01;;;;;;;13.77;10.80;;;;;;;4.95;100.00;100707.81;4990136;28;20121;-70
2021/12/13 10:04:37;;;;;;;12.20;8.93;;;;;;;4.95;100.00;100712.06;4993109;28;20077;-70
2021/12/13 10:07:22;;;;;;;10.50;6.70;;;;;;;4.96;100.00;100709.59;4993183;28;20069;-70
2021/12/13 10:09:58;;;;;;;11.57;8.40;;;;;;;4.86;100.00;100700.44;4993210;28;20045;-70
2021/12/13 10:12:30;;;;;;;12.55;8.25;;;;;;;4.97;100.00;100710.47;4993061;28;20032;-70
2021/12/13 10:15:05;;;;;;;9.30;6.40;;;;;;;5.01;100.00;100718.44;4981614;28;20565;-70
2021/12/13 10:17:35;;;;;;;11.45;6.90;;;;;;;5.04;100.00;100707.50;4940695;28;20720;-71
2021/12/13 10:20:06;;;;;;;9.90;6.63;;;;;;;4.98;100.00;100705.44;4985159;28;20035;-69
2021/12/13 10:22:32;;;;;;;10.00;6.78;;;;;;;4.93;100.00;100718.75;4992885;28;20089;-71
2021/12/13 10:25:15;;;;;;;12.50;8.52;;;;;;;4.83;100.00;100696.81;4984042;28;20030;-72
2021/12/13 10:27:40;;;;;;;13.75;8.57;;;;;;;4.69;100.00;100686.56;4973128;28;20142;-70
2021/12/13 10:30:12;;;;;;;11.82;8.27;;;;;;;4.89;100.00;100715.09;4977062;28;20129;-70
2021/12/13 10:32:39;;;;;;;9.10;6.40;;;;;;;4.89;100.00;100719.34;4973038;28;20030;-70
2021/12/13 10:35:13;;;;;;;12.18;6.90;;;;;;;4.92;100.00;100711.84;4973047;28;20022;-70
2021/12/13 10:37:42;;;;;;;9.77;6.30;;;;;;;4.81;100.00;100698.38;4972675;28;20034;-73
2021/12/13 10:40:17;;;;;;;10.43;7.35;;;;;;;4.85;100.00;100721.69;4972636;28;20405;-72
2021/12/13 10:42:48;;;;;;;10.43;7.18;;;;;;;4.71;100.00;100702.03;4955309;28;20522;-70
2021/12/13 10:45:21;;;;;;;8.25;6.28;;;;;;;4.54;100.00;100675.38;4938478;28;20043;-70
2021/12/13 10:47:53;;;;;;;8.25;6.28;;;;;;;4.65;100.00;100706.75;4972533;28;20026;-70
2021/12/13 10:50:35;;;;;;;10.40;6.50;;;;;;;4.48;100.00;100674.97;4971939;28;20129;-72
2021/12/13 10:53:04;;;;;;;18.17;7.82;;;;;;;4.42;100.00;100661.78;4964476;28;20460;-71
2021/12/13 10:55:36;;;;;;;20.50;11.23;;;;;;;4.50;100.00;100673.41;4971713;28;20065;-72
2021/12/13 10:58:03;;;;;;;30.00;9.27;;;;;;;4.26;100.00;100631.78;4971763;28;20038;-72
2021/12/13 11:00:40;;;;;;;32.03;8.70;;;;;;;4.66;100.00;100675.25;4971791;28;20435;-72
2021/12/13 11:03:10;;;;;;;19.33;7.90;;;;;;;4.70;100.00;100678.13;4954570;28;20116;-71
2021/12/13 11:05:36;;;;;;;;;;;;;;;4.72;100.00;100677.34;4941548;28;20046;-71
2021/12/13 11:08:04;;;;;;;17.08;7.88;;;;;;;4.61;100.00;100679.19;4990789;28;19945;-71
2021/12/13 11:10:35;;;;;;;12.57;6.22;;;;;;;4.15;100.00;100591.13;4991012;28;20023;-71
2021/12/13 11:13:03;;;;;;;12.93;7.07;;;;;;;4.41;100.00;100644.69;4990732;28;20484;-71
2021/12/13 11:15:37;;;;;;;9.88;6.38;;;;;;;4.66;100.00;100677.81;4979454;28;20033;-71
2021/12/13 11:18:09;;;;;;;9.43;6.65;;;;;;;4.62;100.00;100676.75;4971802;28;20548;-71
2021/12/13 11:20:49;;;;;;;13.05;8.93;;;;;;;4.66;100.00;100690.59;4971861;28;20038;-71
2021/12/13 11:23:17;;;;;;;12.73;8.10;;;;;;;4.61;100.00;100661.28;4972093;28;20038;-72
2021/12/13 11:25:47;;;;;;;10.15;7.15;;;;;;;3.80;100.00;100536.06;4971738;28;20477;-70
2021/12/13 11:28:15;;;;;;;14.07;8.82;;;;;;;4.32;100.00;100619.41;4975921;28;20022;-70
2021/12/13 11:30:45;;;;;;;11.38;7.10;;;;;;;4.66;100.00;100685.50;4974970;28;20489;-70
2021/12/13 11:33:40;;;;;;;9.32;6.15;;;;;;;4.73;100.00;100686.78;4976175;28;20031;-71
2021/12/13 11:36:14;;;;;;;12.10;5.63;;;;;;;4.70;100.00;100677.25;4939796;28;20042;-71
2021/12/13 11:39:18;;;;;;;11.18;7.13;;;;;;;4.61;100.00;100669.88;4977493;28;20045;-71
2021/12/13 11:42:11;;;;;;;8.57;6.20;;;;;;;4.49;100.00;100664.84;4983175;28;20030;-72
2021/12/13 11:45:04;;;;;;;9.68;7.32;;;;;;;4.48;100.00;100674.97;4904467;29;20518;-71
2021/12/13 11:47:30;;;;;;;10.95;7.88;;;;;;;4.47;100.00;100673.19;4928592;29;20138;-71
2021/12/13 11:50:29;;;;;;;15.48;9.57;;;;;;;4.57;100.00;100667.88;4930018;29;20126;-71
2021/12/13 11:53:13;;;;;;;8.23;6.07;;;;;;;4.51;100.00;100660.72;4930203;29;20038;-71
2021/12/13 11:56:15;;;;;;;13.43;8.68;;;;;;;4.43;100.00;100663.56;4929801;29;20495;-71
2021/12/13 11:59:12;;;;;;;12.15;8.88;;;;;;;4.47;100.00;100665.53;4930001;29;20044;-71
2021/12/13 12:02:01;;;;;;;12.50;7.88;;;;;;;4.47;100.00;100660.41;4929909;29;20044;-71
2021/12/13 12:04:51;;;;;;;7.78;5.82;;;;;;;4.42;100.00;100659.25;4929859;29;20032;-72
2021/12/13 12:07:40;;;;;;;7.97;5.05;;;;;;;3.92;100.00;100594.72;4930023;29;20035;-71
2021/12/13 13:48:04;;;;;;;19.48;14.65;;;;;;;4.44;100.00;100711.38;4970520;28;21017;-70
2021/12/13 13:50:36;;;;;;;20.58;14.85;;;;;;;4.30;100.00;100713.91;4991443;28;20054;-69
2021/12/13 13:53:34;;;;;;;13.25;9.90;;;;;;;4.28;100.00;100730.78;4993254;28;20441;-70
2021/12/13 13:56:02;;;;;;;8.05;6.50;;;;;;;4.12;100.00;100722.88;4993188;28;20018;-69
2021/12/13 13:58:38;;;;;;;10.90;7.03;;;;;;;4.16;100.00;100722.28;4992742;28;20030;-70
2021/12/13 14:01:10;;;;;;;13.30;8.68;;;;;;;4.13;100.00;100725.53;4993203;28;20106;-69
2021/12/13 14:03:47;;;;;;;13.75;8.68;;;;;;;3.97;100.00;100713.41;4992857;28;20030;-69
2021/12/13 14:06:18;;;;;;;14.43;9.10;;;;;;;3.57;100.00;100654.53;4992928;28;20026;-70
2021/12/13 14:08:52;;;;;;;11.43;8.77;;;;;;;3.61;100.00;100661.59;4993100;28;20117;-69
2021/12/13 14:11:20;;;;;;;17.60;10.98;;;;;;;4.05;100.00;100722.47;4993039;28;20101;-70
2021/12/13 14:13:46;;;;;;;14.05;10.63;;;;;;;4.26;100.00;100736.56;4992636;28;20030;-69
2021/12/13 14:16:19;;;;;;;13.77;10.18;;;;;;;4.15;100.00;100728.19;4992539;28;20493;-69
2021/12/13 14:18:46;;;;;;;13.88;9.98;;;;;;;4.01;100.00;100735.84;4992901;28;20026;-69
2021/12/13 14:21:14;;;;;;;14.05;9.82;;;;;;;3.87;100.00;100734.00;4992810;28;20030;-68
2021/12/13 14:23:44;;;;;;;17.48;13.13;;;;;;;3.97;100.00;100738.06;4992113;28;20034;-68
2021/12/13 14:26:30;;;;;;;16.05;11.57;;;;;;;3.98;100.00;100747.50;4992506;28;20486;-69
2021/12/13 14:29:07;;;;;;;15.65;11.30;;;;;;;4.00;100.00;100756.16;4941530;28;20140;-69
2021/12/13 14:31:43;;;;;;;13.07;10.77;;;;;;;4.08;100.00;100749.03;4992353;28;20533;-68
2021/12/13 14:34:14;;;;;;;16.92;11.45;;;;;;;3.98;100.00;100745.84;4991829;28;20026;-69
2021/12/13 14:36:45;;;;;;;15.20;12.38;;;;;;;3.75;100.00;100715.28;4941789;28;20073;-68
2021/12/13 14:39:13;;;;;;;16.00;12.27;;;;;;;3.95;100.00;100752.41;4992410;28;20096;-68
2021/12/13 14:41:43;;;;;;;17.60;13.10;;;;;;;3.82;100.00;100769.44;4992213;28;20563;-69
2021/12/13 14:44:12;;;;;;;17.02;12.85;;;;;;;3.56;100.00;100714.94;4992128;28;20037;-70
2021/12/13 14:46:46;;;;;;;;;;;;;;;3.84;100.00;100761.91;4992719;28;20034;-70
2021/12/13 14:49:16;;;;;;;14.43;10.30;;;;;;;3.72;100.00;100769.59;4992040;28;19924;-70
2021/12/13 14:51:48;;;;;;;17.55;11.43;;;;;;;3.16;100.00;100655.13;4992516;28;20074;-70
2021/12/13 14:54:18;;;;;;;14.82;11.20;;;;;;;3.81;100.00;100761.69;4991829;28;20060;-70
2021/12/13 14:56:48;;;;;;;15.90;12.07;;;;;;;3.81;100.00;100771.88;4991727;28;20038;-69
2021/12/13 14:59:14;;;;;;;16.25;12.73;;;;;;;3.18;100.00;100677.41;4992354;28;20066;-70
2021/12/13 15:01:42;;;;;;;16.77;12.73;;;;;;;3.34;100.00;100716.75;4991956;28;20026;-69
2021/12/13 15:04:22;;;;;;;16.45;12.30;;;;;;;3.73;100.00;100768.81;4991676;28;20113;-69
2021/12/13 15:06:52;;;;;;;16.85;13.05;;;;;;;3.79;100.00;100773.44;4992036;28;20096;-70
2021/12/13 15:09:22;;;;;;;14.93;11.73;;;;;;;3.70;100.00;100773.69;4991441;28;20041;-69
2021/12/13 15:11:54;;;;;;;16.55;11.63;;;;;;;3.55;100.00;100784.63;4992169;28;20058;-69
2021/12/13 15:14:28;;;;;;;15.45;12.15;;;;;;;3.19;100.00;100702.16;4957215;28;20042;-69
2021/12/13 15:17:02;;;;;;;13.13;10.18;;;;;;;3.38;100.00;100739.16;4991705;28;20053;-71
2021/12/13 15:19:31;;;;;;;13.00;9.75;;;;;;;3.40;100.00;100778.44;4991508;28;20540;-71
2021/12/13 15:21:59;;;;;;;11.68;9.13;;;;;;;3.43;100.00;100787.97;4986040;28;20031;-71
2021/12/13 15:24:30;;;;;;;13.23;10.00;;;;;;;2.94;100.00;100697.00;4980285;28;20030;-71
2021/12/13 15:27:01;;;;;;;14.15;10.27;;;;;;;3.44;100.00;100780.44;4972958;28;20044;-71
2021/12/13 15:29:30;;;;;;;13.43;10.00;;;;;;;3.22;100.00;100744.84;4977724;28;20038;-71
2021/12/13 15:32:03;;;;;;;14.43;10.75;;;;;;;3.19;100.00;100749.72;4938455;28;20049;-72
2021/12/13 15:34:33;;;;;;;12.88;9.88;;;;;;;3.17;100.00;100769.16;4970811;28;20481;-72
2021/12/13 15:36:59;;;;;;;14.25;10.30;;;;;;;3.16;100.00;100780.13;4971241;28;20035;-71
2021/12/13 15:39:26;;;;;;;15.43;10.20;;;;;;;2.46;100.00;100634.06;4950274;28;20030;-71
2021/12/13 15:41:56;;;;;;;13.00;9.80;;;;;;;3.12;100.00;100761.16;4971119;28;20030;-71
2021/12/13 15:44:22;;;;;;;14.57;11.18;;;;;;;3.27;100.00;100791.13;4970743;28;20113;-71
2021/12/13 15:46:51;;;;;;;12.82;9.68;;;;;;;3.00;100.00;100760.28;4976782;28;20043;-71
2021/12/13 15:49:32;;;;;;;13.38;9.13;;;;;;;3.15;100.00;100796.22;4970953;28;20094;-71
2021/12/13 15:52:11;;;;;;;13.98;9.00;;;;;;;3.18;100.00;100797.31;4971028;28;20042;-70
2021/12/13 15:54:43;;;;;;;14.20;10.80;;;;;;;3.22;100.00;100801.84;4970830;28;20027;-71
2021/12/13 16:24:24;;;;;;;27.80;15.68;;;;;;;3.23;100.00;100818.06;4971425;28;20097;-69
2021/12/13 16:26:53;;;;;;;35.13;21.27;;;;;;;3.24;100.00;100813.06;4983542;28;20045;-69
2021/12/13 16:29:24;;;;;;;43.40;22.80;;;;;;;3.04;100.00;100811.63;4957207;28;20114;-69
2021/12/13 16:31:51;;;;;;;32.35;18.08;;;;;;;3.12;100.00;100827.50;4973445;28;20122;-71
2021/12/13 16:34:21;;;;;;;21.10;13.38;;;;;;;2.99;100.00;100802.78;4972838;28;20018;-70
2021/12/13 16:37:00;;;;;;;32.15;18.15;;;;;;;3.19;100.00;100829.72;4971761;28;20031;-70
2021/12/13 16:39:32;;;;;;;32.28;17.70;;;;;;;3.14;100.00;100831.06;4972990;28;20108;-70
2021/12/13 16:42:03;;;;;;;24.92;15.48;;;;;;;3.18;100.00;100833.03;4981593;28;20085;-71
2021/12/13 16:44:34;;;;;;;53.97;27.55;;;;;;;2.85;100.00;100766.03;4971973;28;20081;-71
2021/12/13 16:47:04;;;;;;;31.73;18.30;;;;;;;3.20;100.00;100828.94;4990067;28;20019;-71
2021/12/13 16:49:32;;;;;;;30.33;19.10;;;;;;;3.00;100.00;100803.66;4989387;28;20089;-70
2021/12/13 16:52:18;;;;;;;42.92;22.80;;;;;;;3.22;100.00;100839.25;4955552;28;20046;-71
2021/12/13 16:54:51;;;;;;;46.83;24.75;;;;;;;2.93;100.00;100789.56;4989848;28;20038;-71
2021/12/13 16:57:31;;;;;;;42.65;22.73;;;;;;;3.22;100.00;100835.03;4993548;28;20037;-71
2021/12/13 17:00:11;;;;;;;23.83;15.52;;;;;;;2.85;100.00;100772.81;4994592;28;20099;-71
2021/12/13 17:06:20;;;;;;;52.35;27.15;;;;;;;3.13;100.00;100839.47;4993514;28;20125;-73
2021/12/13 17:08:51;;;;;;;21.88;12.65;;;;;;;3.08;100.00;100838.25;4993552;28;20034;-72
2021/12/13 17:11:20;;;;;;;17.45;11.98;;;;;;;3.07;100.00;100850.09;4993725;28;20030;-72
2021/12/13 17:13:50;;;;;;;27.88;14.57;;;;;;;2.63;100.00;100778.91;4993854;28;20440;-73
2021/12/13 17:16:31;;;;;;;25.63;14.95;;;;;;;2.92;100.00;100832.03;4993744;28;20038;-72
2021/12/13 17:19:16;;;;;;;30.52;17.73;;;;;;;3.15;100.00;100854.88;4993755;28;20034;-72
2021/12/13 17:22:14;;;;;;;30.80;17.65;;;;;;;3.12;100.00;100852.13;4995481;28;20127;-72
2021/12/13 17:24:51;;;;;;;25.35;14.80;;;;;;;3.14;100.00;100848.00;4913930;29;20102;-73
2021/12/13 17:27:22;;;;;;;22.27;13.27;;;;;;;3.10;100.00;100856.22;4914612;29;20107;-73
2021/12/13 17:29:47;;;;;;;20.67;13.32;;;;;;;3.20;100.00;100853.56;4915064;29;20454;-72
2021/12/13 17:32:18;;;;;;;15.85;11.43;;;;;;;3.20;100.00;100853.56;4914332;29;20028;-72
2021/12/13 17:34:53;;;;;;;29.13;16.80;;;;;;;3.19;100.00;100860.34;4913953;29;20040;-74
2021/12/13 17:37:24;;;;;;;19.10;13.02;;;;;;;3.25;100.00;100859.88;4912825;29;20123;-71
2021/12/13 17:39:58;;;;;;;15.13;10.07;;;;;;;3.14;100.00;100860.75;4907718;29;20048;-72
2021/12/13 17:42:35;;;;;;;15.32;11.65;;;;;;;3.15;100.00;100860.88;4898246;29;20040;-72
2021/12/13 17:45:28;;;;;;;19.83;13.60;;;;;;;3.22;100.00;100868.19;4914207;29;20032;-72
2021/12/13 17:48:08;;;;;;;17.02;12.35;;;;;;;3.11;100.00;100865.66;4912424;29;20538;-71
2021/12/13 17:50:50;;;;;;;19.20;13.05;;;;;;;3.01;100.00;100852.22;4913743;29;20064;-71
2021/12/13 17:53:38;;;;;;;24.80;16.63;;;;;;;3.26;100.00;100876.09;4913099;29;20052;-72
2021/12/13 17:56:22;;;;;;;15.50;10.98;;;;;;;3.03;100.00;100870.19;4914115;29;20495;-71
2021/12/13 17:58:58;;;;;;;17.95;13.32;;;;;;;3.11;100.00;100868.22;4900837;29;20039;-72
2021/12/13 18:01:37;;;;;;;14.85;10.75;;;;;;;3.03;100.00;100875.31;4948110;28;20094;-72
2021/12/13 18:04:17;;;;;;;21.40;14.25;;;;;;;3.10;100.00;100877.50;4954630;28;20027;-71
2021/12/13 18:07:07;;;;;;;18.10;12.82;;;;;;;2.91;100.00;100870.16;4954684;28;20039;-71
2021/12/13 18:09:38;;;;;;;21.70;14.15;;;;;;;2.98;100.00;100874.97;4954697;28;20034;-71
2021/12/13 18:12:27;;;;;;;18.17;12.75;;;;;;;3.03;100.00;100873.63;4954449;29;20027;-71
2021/12/13 18:15:07;;;;;;;17.38;12.43;;;;;;;2.91;100.00;100881.25;4913525;29;20047;-71
2021/12/13 18:17:35;;;;;;;18.90;13.82;;;;;;;3.00;100.00;100875.94;4913686;29;20514;-71
2021/12/13 18:20:07;;;;;;;25.23;16.20;;;;;;;2.96;100.00;100873.06;4913982;29;20044;-72
2021/12/13 18:22:55;;;;;;;19.17;13.32;;;;;;;2.88;100.00;100888.69;4913670;29;20074;-72
2021/12/13 18:25:20;;;;;;;20.73;13.82;;;;;;;2.91;100.00;100891.44;4913332;29;20517;-72
2021/12/13 18:27:59;;;;;;;21.55;15.30;;;;;;;2.63;100.00;100845.19;4913584;29;20031;-72
2021/12/13 18:30:35;;;;;;;18.33;12.95;;;;;;;2.63;100.00;100865.56;4913652;29;20200;-72
2021/12/13 18:33:05;;;;;;;25.45;15.43;;;;;;;2.86;100.00;100892.78;4913735;29;20052;-72
2021/12/13 18:35:44;;;;;;;23.23;15.63;;;;;;;2.96;100.00;100893.47;4913279;29;20036;-72
2021/12/13 18:38:32;;;;;;;22.20;15.73;;;;;;;2.94;100.00;100889.91;4913355;29;20072;-72
2021/12/13 18:41:02;;;;;;;21.45;14.60;;;;;;;2.80;100.00;100893.97;4917290;29;20043;-71
2021/12/13 19:23:28;;;;;;;19.10;13.05;;;;;;;2.94;100.00;100913.78;4970295;28;20184;-70
2021/12/13 19:25:59;;;;;;;18.48;12.77;;;;;;;2.87;100.00;100922.59;4970963;28;20042;-70
2021/12/13 19:28:28;;;;;;;21.35;14.52;;;;;;;2.82;100.00;100893.31;4971316;28;20489;-70
2021/12/13 19:31:02;;;;;;;23.10;15.82;;;;;;;2.86;100.00;100900.41;4971179;28;20165;-70
2021/12/13 19:33:41;;;;;;;24.25;16.65;;;;;;;2.94;100.00;100913.78;4971252;28;20110;-70
2021/12/13 19:36:09;;;;;;;24.15;17.13;;;;;;;3.02;100.00;100922.00;4971331;28;20033;-70
2021/12/13 19:38:47;;;;;;;22.35;15.43;;;;;;;2.90;100.00;100917.75;4971688;28;20038;-70
2021/12/13 19:41:32;;;;;;;24.65;16.40;;;;;;;2.97;100.00;100918.22;4971122;28;20042;-70
2021/12/13 19:44:12;;;;;;;21.95;15.55;;;;;;;2.79;100.00;100892.19;4927796;29;20094;-70
2021/12/13 19:46:43;;;;;;;19.90;12.85;;;;;;;2.71;100.00;100918.00;4930171;29;20507;-70
2021/12/13 19:49:22;;;;;;;25.02;16.15;;;;;;;2.70;100.00;100895.81;4929451;29;20496;-70
2021/12/13 19:51:59;;;;;;;24.42;17.10;;;;;;;2.79;100.00;100913.50;4899948;29;20043;-71
